sensor_id;sensor_type;location;lat;lon;timestamp;pressure;altitude;pressure_sealevel;temperature;humidity
3697;BME280;60662;48.810;8.872;2022-10-10T07:17:57;96648.09;;;15.93;72.88
3697;BME280;60662;48.810;8.872;2022-10-10T07:18:59;96646.47;;;16.18;71.37
3697;BME280;60662;48.810;8.872;2022-10-10T07:20:00;96646.09;;;15.00;72.88
3697;BME280;60662;48.810;8.872;2022-10-10T07:21:02;96645.34;;;15.40;73.63
3697;BME280;60662;48.810;8.872;2022-10-10T07:22:04;96651.47;;;15.95;71.80
3697;BME280;60662;48.810;8.872;2022-10-10T07:23:05;96658.88;;;16.15;70.25
3697;BME280;60662;48.810;8.872;2022-10-10T07:24:07;96657.00;;;16.30;69.77
3697;BME280;60662;48.810;8.872;2022-10-10T07:25:08;96655.03;;;16.60;68.66
3697;BME280;60662;48.810;8.872;2022-10-10T07:26:12;96658.69;;;16.70;68.18
3697;BME280;60662;48.810;8.872;2022-10-10T07:47:06;96670.66;;;15.13;74.04
3697;BME280;60662;48.810;8.872;2022-10-10T07:48:11;96670.50;;;15.02;74.06
3697;BME280;60662;48.810;8.872;2022-10-10T07:49:13;96679.81;;;14.93;74.64
3697;BME280;60662;48.810;8.872;2022-10-10T07:50:14;96683.00;;;14.98;74.64
3697;BME280;60662;48.810;8.872;2022-10-10T07:51:16;96679.88;;;14.92;74.95
3697;BME280;60662;48.810;8.872;2022-10-10T07:52:17;96665.81;;;14.78;75.04
3697;BME280;60662;48.810;8.872;2022-10-10T07:53:22;96681.38;;;14.81;75.25
3697;BME280;60662;48.810;8.872;2022-10-10T07:54:24;96678.41;;;14.73;75.44
3697;BME280;60662;48.810;8.872;2022-10-10T08:13:47;96680.75;;;15.48;74.25
3697;BME280;60662;48.810;8.872;2022-10-10T08:14:52;96682.25;;;15.80;73.69
3697;BME280;60662;48.810;8.872;2022-10-10T08:15:54;96662.75;;;16.10;72.13
3697;BME280;60662;48.810;8.872;2022-10-10T08:16:55;96692.59;;;16.23;72.11
3697;BME280;60662;48.810;8.872;2022-10-10T08:17:57;96695.38;;;15.94;72.72
3697;BME280;60662;48.810;8.872;2022-10-10T08:18:58;96693.81;;;15.77;72.96
3697;BME280;60662;48.810;8.872;2022-10-10T08:20:00;96690.75;;;15.71;73.20
3697;BME280;60662;48.810;8.872;2022-10-10T08:21:06;96698.13;;;15.51;74.20
3697;BME280;60662;48.810;8.872;2022-10-10T08:22:08;96700.16;;;15.60;74.40
3697;BME280;60662;48.810;8.872;2022-10-10T08:23:09;96692.09;;;15.63;73.64
3697;BME280;60662;48.810;8.872;2022-10-10T08:24:11;96699.69;;;15.95;73.47
3697;BME280;60662;48.810;8.872;2022-10-10T08:25:12;96697.84;;;16.10;72.76
3697;BME280;60662;48.810;8.872;2022-10-10T08:26:18;96698.13;;;16.59;71.38
3697;BME280;60662;48.810;8.872;2022-10-10T08:27:20;96696.66;;;16.68;70.57
3697;BME280;60662;48.810;8.872;2022-10-10T08:28:22;96688.88;;;16.53;71.04
3697;BME280;60662;48.810;8.872;2022-10-10T08:29:24;96696.72;;;16.40;71.29
3697;BME280;60662;48.810;8.872;2022-10-10T08:30:25;96701.94;;;16.42;71.52
3697;BME280;60662;48.810;8.872;2022-10-10T08:31:26;96702.13;;;16.52;71.50
3697;BME280;60662;48.810;8.872;2022-10-10T08:32:31;96681.91;;;16.78;70.48
3697;BME280;60662;48.810;8.872;2022-10-10T08:33:32;96682.88;;;17.03;69.65
3697;BME280;60662;48.810;8.872;2022-10-10T08:34:34;96682.28;;;17.85;67.60
3697;BME280;60662;48.810;8.872;2022-10-10T08:35:38;96691.31;;;18.06;66.99
3697;BME280;60662;48.810;8.872;2022-10-10T08:36:40;96688.50;;;18.21;65.15
3697;BME280;60662;48.810;8.872;2022-10-10T08:37:42;96688.38;;;18.81;63.76
3697;BME280;60662;48.810;8.872;2022-10-10T08:38:43;96688.16;;;18.95;63.94
3697;BME280;60662;48.810;8.872;2022-10-10T08:39:45;96693.44;;;19.52;62.16
3697;BME280;60662;48.810;8.872;2022-10-10T08:40:48;96683.91;;;18.81;63.27
3697;BME280;60662;48.810;8.872;2022-10-10T08:41:58;96685.22;;;18.53;64.31
3697;BME280;60662;48.810;8.872;2022-10-10T08:43:03;96691.72;;;18.83;64.10
3697;BME280;60662;48.810;8.872;2022-10-10T08:44:18;96695.38;;;18.82;63.79
3697;BME280;60662;48.810;8.872;2022-10-10T08:45:25;96697.81;;;18.14;65.75
3697;BME280;60662;48.810;8.872;2022-10-10T08:46:45;96705.63;;;17.91;66.50
3697;BME280;60662;48.810;8.872;2022-10-10T08:47:53;96695.00;;;17.79;66.89
3697;BME280;60662;48.810;8.872;2022-10-10T08:49:03;96703.41;;;19.60;62.04
3697;BME280;60662;48.810;8.872;2022-10-10T08:50:19;96701.19;;;20.74;58.91
3697;BME280;60662;48.810;8.872;2022-10-10T08:51:30;96695.28;;;21.22;58.07
3697;BME280;60662;48.810;8.872;2022-10-10T08:52:46;96699.44;;;21.15;57.66
3697;BME280;60662;48.810;8.872;2022-10-10T09:00:09;96701.66;;;19.03;63.59
3697;BME280;60662;48.810;8.872;2022-10-10T09:01:15;96677.66;;;18.59;64.52
3697;BME280;60662;48.810;8.872;2022-10-10T09:02:27;96695.19;;;18.14;65.86
3697;BME280;60662;48.810;8.872;2022-10-10T09:03:54;96695.44;;;17.73;67.57
3697;BME280;60662;48.810;8.872;2022-10-10T09:04:56;96688.56;;;17.46;68.35
3697;BME280;60662;48.810;8.872;2022-10-10T09:07:57;96697.69;;;18.98;65.07
3697;BME280;60662;48.810;8.872;2022-10-10T09:10:45;96701.34;;;18.84;64.60
3697;BME280;60662;48.810;8.872;2022-10-10T09:20:47;96701.16;;;17.67;68.32
3697;BME280;60662;48.810;8.872;2022-10-10T09:21:54;96695.34;;;17.38;69.40
3697;BME280;60662;48.810;8.872;2022-10-10T09:23:02;96697.16;;;17.37;69.68
3697;BME280;60662;48.810;8.872;2022-10-10T09:30:43;96693.97;;;20.22;60.99
3697;BME280;60662;48.810;8.872;2022-10-10T09:31:53;96698.47;;;21.16;59.30
3697;BME280;60662;48.810;8.872;2022-10-10T09:33:02;96695.78;;;22.17;56.35
3697;BME280;60662;48.810;8.872;2022-10-10T09:34:17;96698.19;;;23.07;53.96
3697;BME280;60662;48.810;8.872;2022-10-10T09:35:25;96700.09;;;23.80;52.10
3697;BME280;60662;48.810;8.872;2022-10-10T09:36:33;96606.31;;;23.48;50.73
3697;BME280;60662;48.810;8.872;2022-10-10T09:37:38;96706.72;;;24.84;48.77
3697;BME280;60662;48.810;8.872;2022-10-10T09:38:51;96679.22;;;25.18;48.22
3697;BME280;60662;48.810;8.872;2022-10-10T09:40:02;96706.66;;;24.32;49.79
3697;BME280;60662;48.810;8.872;2022-10-10T09:47:54;96699.03;;;25.85;47.13
3697;BME280;60662;48.810;8.872;2022-10-10T09:48:56;96702.31;;;26.21;45.83
3697;BME280;60662;48.810;8.872;2022-10-10T09:49:57;96701.84;;;25.67;47.29
3697;BME280;60662;48.810;8.872;2022-10-10T09:51:02;96690.97;;;25.68;47.83
3697;BME280;60662;48.810;8.872;2022-10-10T09:52:27;96702.13;;;24.50;48.70
3697;BME280;60662;48.810;8.872;2022-10-10T09:53:29;96696.41;;;24.89;48.51
3697;BME280;60662;48.810;8.872;2022-10-10T09:54:30;96702.06;;;23.22;51.85
3697;BME280;60662;48.810;8.872;2022-10-10T09:55:36;96703.97;;;23.68;51.57
3697;BME280;60662;48.810;8.872;2022-10-10T09:56:53;96709.06;;;24.07;50.95
3697;BME280;60662;48.810;8.872;2022-10-10T09:58:00;96699.88;;;23.18;51.88
3697;BME280;60662;48.810;8.872;2022-10-10T09:59:04;96697.81;;;24.13;51.03
3697;BME280;60662;48.810;8.872;2022-10-10T10:02:26;96668.41;;;24.93;47.49
3697;BME280;60662;48.810;8.872;2022-10-10T10:03:28;96700.88;;;24.62;49.86
3697;BME280;60662;48.810;8.872;2022-10-10T10:04:32;96705.97;;;25.26;48.68
3697;BME280;60662;48.810;8.872;2022-10-10T10:05:34;96696.81;;;26.56;44.97
3697;BME280;60662;48.810;8.872;2022-10-10T10:06:36;96695.97;;;26.39;45.64
3697;BME280;60662;48.810;8.872;2022-10-10T10:07:46;96697.66;;;25.64;47.62
3697;BME280;60662;48.810;8.872;2022-10-10T10:08:51;96701.84;;;26.76;45.44
3697;BME280;60662;48.810;8.872;2022-10-10T10:09:56;96697.81;;;26.30;45.07
3697;BME280;60662;48.810;8.872;2022-10-10T10:10:58;96695.47;;;26.60;45.67
3697;BME280;60662;48.810;8.872;2022-10-10T10:12:03;96692.63;;;26.12;45.80
3697;BME280;60662;48.810;8.872;2022-10-10T10:13:11;96684.16;;;23.70;50.91
3697;BME280;60662;48.810;8.872;2022-10-10T10:14:24;96693.16;;;23.41;51.13
3697;BME280;60662;48.810;8.872;2022-10-10T10:15:28;96688.75;;;22.75;52.57
3697;BME280;60662;48.810;8.872;2022-10-10T10:16:36;96710.81;;;24.70;49.07
3697;BME280;60662;48.810;8.872;2022-10-10T10:17:38;96682.91;;;26.11;46.35
3697;BME280;60662;48.810;8.872;2022-10-10T10:18:45;96705.66;;;25.30;47.80
3697;BME280;60662;48.810;8.872;2022-10-10T10:19:47;96689.94;;;25.26;48.15
3697;BME280;60662;48.810;8.872;2022-10-10T10:35:27;96708.00;;;28.90;41.07
3697;BME280;60662;48.810;8.872;2022-10-10T10:38:42;96712.03;;;27.93;42.09
3697;BME280;60662;48.810;8.872;2022-10-10T10:40:12;96711.13;;;27.77;42.09
3697;BME280;60662;48.810;8.872;2022-10-10T10:44:30;96712.69;;;26.16;45.58
3697;BME280;60662;48.810;8.872;2022-10-10T10:45:57;96705.84;;;25.71;46.43
3697;BME280;60662;48.810;8.872;2022-10-10T10:48:45;96708.84;;;27.97;43.09
3697;BME280;60662;48.810;8.872;2022-10-10T10:55:27;96707.38;;;28.41;40.18
3697;BME280;60662;48.810;8.872;2022-10-10T10:56:46;96706.34;;;29.04;39.11
3697;BME280;60662;48.810;8.872;2022-10-10T10:59:59;96707.38;;;28.41;39.77
3697;BME280;60662;48.810;8.872;2022-10-10T11:01:30;96703.91;;;28.32;40.85
3697;BME280;60662;48.810;8.872;2022-10-10T11:05:45;96704.50;;;29.19;39.51
3697;BME280;60662;48.810;8.872;2022-10-10T11:11:21;96705.31;;;30.74;36.29
3697;BME280;60662;48.810;8.872;2022-10-10T11:13:54;96696.31;;;30.45;37.77
3697;BME280;60662;48.810;8.872;2022-10-10T11:15:25;96692.59;;;30.68;36.71
3697;BME280;60662;48.810;8.872;2022-10-10T11:16:52;96701.88;;;30.59;36.13
3697;BME280;60662;48.810;8.872;2022-10-10T11:18:14;96693.88;;;30.29;36.77
3697;BME280;60662;48.810;8.872;2022-10-10T11:19:28;96689.19;;;27.97;40.35
3697;BME280;60662;48.810;8.872;2022-10-10T11:20:51;96683.41;;;27.53;41.93
3697;BME280;60662;48.810;8.872;2022-10-10T11:22:07;96691.53;;;25.80;44.36
3697;BME280;60662;48.810;8.872;2022-10-10T11:23:14;96698.66;;;27.84;41.32
3697;BME280;60662;48.810;8.872;2022-10-10T11:24:28;96689.47;;;28.80;39.29
3697;BME280;60662;48.810;8.872;2022-10-10T11:25:44;96693.81;;;28.81;39.40
3697;BME280;60662;48.810;8.872;2022-10-10T11:26:51;96676.44;;;29.22;36.84
3697;BME280;60662;48.810;8.872;2022-10-10T11:27:59;96680.25;;;29.42;36.59
3697;BME280;60662;48.810;8.872;2022-10-10T11:29:18;96691.41;;;29.91;36.58
3697;BME280;60662;48.810;8.872;2022-10-10T11:30:24;96693.38;;;30.62;35.42
3697;BME280;60662;48.810;8.872;2022-10-10T11:31:32;96680.97;;;29.21;37.45
3697;BME280;60662;48.810;8.872;2022-10-10T11:32:51;96694.59;;;29.49;37.63
3697;BME280;60662;48.810;8.872;2022-10-10T11:34:03;96687.91;;;29.00;37.39
3697;BME280;60662;48.810;8.872;2022-10-10T11:40:39;96686.41;;;29.88;35.20
3697;BME280;60662;48.810;8.872;2022-10-10T11:42:02;96677.59;;;28.51;37.47
3697;BME280;60662;48.810;8.872;2022-10-10T11:43:13;96662.88;;;28.47;37.69
3697;BME280;60662;48.810;8.872;2022-10-10T11:44:38;96678.84;;;29.31;34.74
3697;BME280;60662;48.810;8.872;2022-10-10T11:45:46;96679.44;;;28.50;35.72
3697;BME280;60662;48.810;8.872;2022-10-10T11:47:21;96677.66;;;28.43;34.03
3697;BME280;60662;48.810;8.872;2022-10-10T11:48:36;96669.19;;;26.47;35.87
3697;BME280;60662;48.810;8.872;2022-10-10T11:57:47;96675.53;;;24.85;46.22
3697;BME280;60662;48.810;8.872;2022-10-10T11:58:55;96673.81;;;24.57;47.12
3697;BME280;60662;48.810;8.872;2022-10-10T12:00:05;96669.63;;;24.99;46.70
3697;BME280;60662;48.810;8.872;2022-10-10T12:01:18;96663.69;;;26.16;44.74
3697;BME280;60662;48.810;8.872;2022-10-10T12:02:30;96679.91;;;26.72;44.96
3697;BME280;60662;48.810;8.872;2022-10-10T12:10:08;96673.34;;;28.42;41.51
3697;BME280;60662;48.810;8.872;2022-10-10T12:11:20;96680.59;;;28.94;40.52
3697;BME280;60662;48.810;8.872;2022-10-10T12:12:52;96682.63;;;29.07;39.49
3697;BME280;60662;48.810;8.872;2022-10-10T12:13:56;96678.78;;;29.40;38.91
3697;BME280;60662;48.810;8.872;2022-10-10T12:15:01;96679.47;;;28.89;38.96
3697;BME280;60662;48.810;8.872;2022-10-10T12:21:15;96667.09;;;28.41;38.39
3697;BME280;60662;48.810;8.872;2022-10-10T12:22:22;96675.41;;;29.23;37.81
3697;BME280;60662;48.810;8.872;2022-10-10T12:23:29;96677.75;;;29.41;36.42
3697;BME280;60662;48.810;8.872;2022-10-10T12:24:33;96667.16;;;29.39;36.86
3697;BME280;60662;48.810;8.872;2022-10-10T12:25:43;96658.25;;;29.54;36.07
3697;BME280;60662;48.810;8.872;2022-10-10T12:28:21;96682.19;;;29.48;36.18
3697;BME280;60662;48.810;8.872;2022-10-10T12:32:25;96674.47;;;27.93;35.10
3697;BME280;60662;48.810;8.872;2022-10-10T12:35:48;96675.44;;;28.00;36.32
3697;BME280;60662;48.810;8.872;2022-10-10T12:37:08;96673.88;;;26.62;39.25
3697;BME280;60662;48.810;8.872;2022-10-10T12:38:14;96672.38;;;27.48;37.70
3697;BME280;60662;48.810;8.872;2022-10-10T12:40:20;96671.69;;;28.79;36.63
3697;BME280;60662;48.810;8.872;2022-10-10T12:43:50;96666.06;;;28.89;36.47
3697;BME280;60662;48.810;8.872;2022-10-10T12:44:56;96646.19;;;28.90;35.93
3697;BME280;60662;48.810;8.872;2022-10-10T12:57:47;96675.28;;;28.86;36.99
3697;BME280;60662;48.810;8.872;2022-10-10T12:58:47;96670.97;;;29.45;36.31
3697;BME280;60662;48.810;8.872;2022-10-10T12:59:50;96667.56;;;29.88;35.30
3697;BME280;60662;48.810;8.872;2022-10-10T13:00:52;96675.88;;;29.71;35.26
3697;BME280;60662;48.810;8.872;2022-10-10T13:01:57;96674.13;;;29.34;35.45
3697;BME280;60662;48.810;8.872;2022-10-10T13:03:09;96667.47;;;29.96;35.17
3697;BME280;60662;48.810;8.872;2022-10-10T13:04:15;96667.25;;;30.41;33.83
3697;BME280;60662;48.810;8.872;2022-10-10T13:05:23;96674.91;;;30.37;33.71
3697;BME280;60662;48.810;8.872;2022-10-10T13:06:39;96674.03;;;29.12;34.88
3697;BME280;60662;48.810;8.872;2022-10-10T13:07:44;96668.34;;;29.67;34.58
3697;BME280;60662;48.810;8.872;2022-10-10T13:08:52;96657.66;;;29.73;34.20
3697;BME280;60662;48.810;8.872;2022-10-10T13:10:04;96672.97;;;29.73;34.56
3697;BME280;60662;48.810;8.872;2022-10-10T13:11:11;96670.91;;;28.09;36.08
3697;BME280;60662;48.810;8.872;2022-10-10T13:13:20;96678.84;;;28.40;35.79
3697;BME280;60662;48.810;8.872;2022-10-10T13:14:24;96678.22;;;29.29;35.00
3697;BME280;60662;48.810;8.872;2022-10-10T13:15:27;96667.81;;;29.26;35.21
3697;BME280;60662;48.810;8.872;2022-10-10T13:16:28;96666.13;;;29.70;34.12
3697;BME280;60662;48.810;8.872;2022-10-10T13:17:40;96664.75;;;27.92;36.53
3697;BME280;60662;48.810;8.872;2022-10-10T13:18:48;96663.66;;;27.38;37.80
3697;BME280;60662;48.810;8.872;2022-10-10T13:19:51;96657.97;;;27.49;37.75
3697;BME280;60662;48.810;8.872;2022-10-10T13:20:54;96664.63;;;28.78;36.35
3697;BME280;60662;48.810;8.872;2022-10-10T13:21:56;96668.38;;;28.07;36.52
3697;BME280;60662;48.810;8.872;2022-10-10T13:22:57;96644.28;;;28.60;35.88
3697;BME280;60662;48.810;8.872;2022-10-10T13:24:04;96667.81;;;28.96;35.04
3697;BME280;60662;48.810;8.872;2022-10-10T13:25:08;96671.34;;;29.42;34.75
3697;BME280;60662;48.810;8.872;2022-10-10T13:32:58;96648.59;;;26.56;39.59
3697;BME280;60662;48.810;8.872;2022-10-10T13:34:02;96664.53;;;26.33;40.15
3697;BME280;60662;48.810;8.872;2022-10-10T13:35:12;96677.44;;;25.62;41.39
3697;BME280;60662;48.810;8.872;2022-10-10T13:36:19;96673.50;;;25.90;41.44
3697;BME280;60662;48.810;8.872;2022-10-10T13:37:21;96663.34;;;26.60;40.43
3697;BME280;60662;48.810;8.872;2022-10-10T13:38:24;96668.97;;;27.15;39.34
3697;BME280;60662;48.810;8.872;2022-10-10T13:39:28;96672.16;;;27.10;39.44
3697;BME280;60662;48.810;8.872;2022-10-10T13:40:30;96676.19;;;27.06;39.54
3697;BME280;60662;48.810;8.872;2022-10-10T13:41:31;96668.50;;;27.51;38.23
3697;BME280;60662;48.810;8.872;2022-10-10T13:42:35;96662.44;;;27.89;38.01
3697;BME280;60662;48.810;8.872;2022-10-10T13:43:39;96673.69;;;27.84;37.70
3697;BME280;60662;48.810;8.872;2022-10-10T13:51:08;96672.03;;;25.53;42.63
3697;BME280;60662;48.810;8.872;2022-10-10T13:52:22;96674.75;;;25.27;43.25
3697;BME280;60662;48.810;8.872;2022-10-10T13:54:36;96670.22;;;25.19;43.15
3697;BME280;60662;48.810;8.872;2022-10-10T13:55:38;96669.38;;;26.21;41.72
3697;BME280;60662;48.810;8.872;2022-10-10T13:56:40;96655.38;;;25.76;41.96
3697;BME280;60662;48.810;8.872;2022-10-10T13:57:42;96659.28;;;25.98;40.71
3697;BME280;60662;48.810;8.872;2022-10-10T13:58:52;96672.97;;;25.95;40.76
3697;BME280;60662;48.810;8.872;2022-10-10T14:00:04;96647.66;;;24.87;43.14
3697;BME280;60662;48.810;8.872;2022-10-10T14:02:31;96651.53;;;25.70;41.16
3697;BME280;60662;48.810;8.872;2022-10-10T14:03:34;96672.16;;;25.95;41.23
3697;BME280;60662;48.810;8.872;2022-10-10T14:04:42;96676.13;;;25.05;42.34
3697;BME280;60662;48.810;8.872;2022-10-10T14:05:44;96661.88;;;25.22;42.17
3697;BME280;60662;48.810;8.872;2022-10-10T14:07:59;96668.78;;;25.33;41.01
3697;BME280;60662;48.810;8.872;2022-10-10T14:09:25;96672.66;;;25.39;40.92
3697;BME280;60662;48.810;8.872;2022-10-10T14:10:29;96670.97;;;25.38;41.24
3697;BME280;60662;48.810;8.872;2022-10-10T14:11:36;96662.06;;;25.64;41.16
3697;BME280;60662;48.810;8.872;2022-10-10T14:12:52;96673.38;;;26.33;40.28
3697;BME280;60662;48.810;8.872;2022-10-10T14:14:03;96674.53;;;26.14;40.77
3697;BME280;60662;48.810;8.872;2022-10-10T14:16:30;96676.09;;;25.31;40.78
3697;BME280;60662;48.810;8.872;2022-10-10T14:17:31;96669.69;;;25.16;41.11
3697;BME280;60662;48.810;8.872;2022-10-10T14:18:32;96676.78;;;24.99;41.35
3697;BME280;60662;48.810;8.872;2022-10-10T14:19:34;96675.31;;;24.78;42.29
3697;BME280;60662;48.810;8.872;2022-10-10T14:20:35;96669.06;;;25.22;42.13
3697;BME280;60662;48.810;8.872;2022-10-10T14:21:36;96666.44;;;25.04;43.55
3697;BME280;60662;48.810;8.872;2022-10-10T14:22:38;96659.25;;;24.70;44.27
3697;BME280;60662;48.810;8.872;2022-10-10T14:23:39;96672.44;;;24.98;44.58
3697;BME280;60662;48.810;8.872;2022-10-10T14:24:41;96672.19;;;25.17;43.27
3697;BME280;60662;48.810;8.872;2022-10-10T14:25:44;96673.50;;;24.60;44.07
3697;BME280;60662;48.810;8.872;2022-10-10T14:33:15;96672.75;;;24.94;43.49
3697;BME280;60662;48.810;8.872;2022-10-10T14:34:16;96660.28;;;24.77;43.69
3697;BME280;60662;48.810;8.872;2022-10-10T14:35:18;96664.44;;;24.71;43.47
3697;BME280;60662;48.810;8.872;2022-10-10T14:36:19;96668.03;;;24.44;44.22
3697;BME280;60662;48.810;8.872;2022-10-10T14:37:24;96676.44;;;24.31;44.39
3697;BME280;60662;48.810;8.872;2022-10-10T14:38:26;96665.69;;;24.41;44.87
3697;BME280;60662;48.810;8.872;2022-10-10T14:39:28;96674.97;;;24.55;44.79
3697;BME280;60662;48.810;8.872;2022-10-10T14:40:33;96663.34;;;24.02;45.48
3697;BME280;60662;48.810;8.872;2022-10-10T14:41:35;96689.91;;;24.66;45.26
3697;BME280;60662;48.810;8.872;2022-10-10T14:42:36;96672.03;;;24.22;46.07
3697;BME280;60662;48.810;8.872;2022-10-10T14:43:38;96682.25;;;24.26;45.46
3697;BME280;60662;48.810;8.872;2022-10-10T14:44:46;96676.28;;;24.33;44.64
3697;BME280;60662;48.810;8.872;2022-10-10T14:45:48;96677.31;;;24.58;44.33
3697;BME280;60662;48.810;8.872;2022-10-10T14:46:50;96681.13;;;24.55;44.45
3697;BME280;60662;48.810;8.872;2022-10-10T14:47:52;96677.41;;;24.66;44.65
3697;BME280;60662;48.810;8.872;2022-10-10T14:48:53;96678.25;;;24.67;44.66
3697;BME280;60662;48.810;8.872;2022-10-10T14:49:54;96674.59;;;24.94;44.14
3697;BME280;60662;48.810;8.872;2022-10-10T14:50:57;96662.34;;;25.18;43.61
3697;BME280;60662;48.810;8.872;2022-10-10T14:51:59;96675.59;;;25.27;43.74
3697;BME280;60662;48.810;8.872;2022-10-10T14:53:02;96674.44;;;25.30;43.29
3697;BME280;60662;48.810;8.872;2022-10-10T14:54:04;96673.50;;;24.78;43.46
3697;BME280;60662;48.810;8.872;2022-10-10T15:02:01;96676.13;;;25.74;42.29
3697;BME280;60662;48.810;8.872;2022-10-10T15:03:03;96667.81;;;26.02;42.01
3697;BME280;60662;48.810;8.872;2022-10-10T15:04:04;96682.22;;;26.09;42.21
3697;BME280;60662;48.810;8.872;2022-10-10T15:05:06;96677.84;;;26.00;42.01
3697;BME280;60662;48.810;8.872;2022-10-10T15:06:09;96678.63;;;25.84;41.77
3697;BME280;60662;48.810;8.872;2022-10-10T15:07:11;96674.28;;;25.66;41.99
3697;BME280;60662;48.810;8.872;2022-10-10T15:08:17;96683.94;;;25.24;42.89
3697;BME280;60662;48.810;8.872;2022-10-10T15:09:21;96682.97;;;24.73;43.75
3697;BME280;60662;48.810;8.872;2022-10-10T15:10:42;96685.75;;;24.09;44.71
3697;BME280;60662;48.810;8.872;2022-10-10T15:11:44;96678.97;;;23.96;45.42
3697;BME280;60662;48.810;8.872;2022-10-10T15:12:45;96694.22;;;23.76;45.90
3697;BME280;60662;48.810;8.872;2022-10-10T15:13:47;96686.81;;;24.34;45.01
3697;BME280;60662;48.810;8.872;2022-10-10T15:14:48;96688.97;;;25.01;43.85
3697;BME280;60662;48.810;8.872;2022-10-10T15:15:50;96684.78;;;24.99;43.47
3697;BME280;60662;48.810;8.872;2022-10-10T15:16:51;96686.91;;;25.48;42.86
3697;BME280;60662;48.810;8.872;2022-10-10T15:17:53;96668.13;;;25.39;42.26
3697;BME280;60662;48.810;8.872;2022-10-10T15:18:54;96695.03;;;25.81;41.94
3697;BME280;60662;48.810;8.872;2022-10-10T15:19:56;96693.94;;;26.08;41.49
3697;BME280;60662;48.810;8.872;2022-10-10T15:20:57;96685.69;;;25.93;41.53
3697;BME280;60662;48.810;8.872;2022-10-10T15:21:59;96694.81;;;25.31;42.63
3697;BME280;60662;48.810;8.872;2022-10-10T15:23:05;96690.03;;;24.82;43.34
3697;BME280;60662;48.810;8.872;2022-10-10T15:24:07;96693.75;;;25.16;43.52
3697;BME280;60662;48.810;8.872;2022-10-10T15:25:11;96682.38;;;25.14;42.58
3697;BME280;60662;48.810;8.872;2022-10-10T15:26:13;96697.03;;;25.09;42.88
3697;BME280;60662;48.810;8.872;2022-10-10T15:27:14;96690.03;;;25.08;43.55
3697;BME280;60662;48.810;8.872;2022-10-10T15:28:15;96690.72;;;25.10;43.58
3697;BME280;60662;48.810;8.872;2022-10-10T15:29:17;96693.44;;;24.92;44.37
3697;BME280;60662;48.810;8.872;2022-10-10T15:30:19;96670.44;;;24.11;45.28
3697;BME280;60662;48.810;8.872;2022-10-10T15:43:03;96703.28;;;25.26;45.19
3697;BME280;60662;48.810;8.872;2022-10-10T15:44:14;96701.28;;;24.68;46.00
3697;BME280;60662;48.810;8.872;2022-10-10T15:45:19;96706.28;;;24.89;45.63
3697;BME280;60662;48.810;8.872;2022-10-10T15:46:41;96704.84;;;25.03;45.92
3697;BME280;60662;48.810;8.872;2022-10-10T15:47:43;96704.22;;;24.83;46.13
3697;BME280;60662;48.810;8.872;2022-10-10T15:48:47;96697.81;;;24.75;46.47
3697;BME280;60662;48.810;8.872;2022-10-10T15:49:48;96706.91;;;24.83;46.95
3697;BME280;60662;48.810;8.872;2022-10-10T15:50:50;96699.50;;;23.86;48.24
3697;BME280;60662;48.810;8.872;2022-10-10T15:51:51;96701.13;;;23.69;48.86
3697;BME280;60662;48.810;8.872;2022-10-10T15:52:53;96705.84;;;23.57;48.55
3697;BME280;60662;48.810;8.872;2022-10-10T15:53:56;96711.16;;;23.29;49.46
3697;BME280;60662;48.810;8.872;2022-10-10T15:54:58;96708.91;;;22.87;50.69
3697;BME280;60662;48.810;8.872;2022-10-10T15:55:59;96700.03;;;22.96;50.32
3697;BME280;60662;48.810;8.872;2022-10-10T15:57:01;96708.88;;;22.97;50.77
3697;BME280;60662;48.810;8.872;2022-10-10T15:58:02;96675.84;;;22.80;51.20
3697;BME280;60662;48.810;8.872;2022-10-10T15:59:04;96704.34;;;22.50;51.48
3697;BME280;60662;48.810;8.872;2022-10-10T16:00:06;96714.44;;;22.46;52.32
3697;BME280;60662;48.810;8.872;2022-10-10T16:01:16;96710.91;;;22.36;52.54
3697;BME280;60662;48.810;8.872;2022-10-10T16:02:18;96713.84;;;22.62;52.33
3697;BME280;60662;48.810;8.872;2022-10-10T16:03:19;96713.97;;;22.71;52.02
3697;BME280;60662;48.810;8.872;2022-10-10T16:04:21;96700.94;;;22.77;51.61
3697;BME280;60662;48.810;8.872;2022-10-10T16:05:22;96707.75;;;22.99;51.19
3697;BME280;60662;48.810;8.872;2022-10-10T16:06:30;96668.31;;;22.65;51.50
3697;BME280;60662;48.810;8.872;2022-10-10T16:14:04;96718.75;;;22.08;54.04
3697;BME280;60662;48.810;8.872;2022-10-10T16:15:06;96720.25;;;22.01;54.25
3697;BME280;60662;48.810;8.872;2022-10-10T16:16:09;96720.53;;;21.88;55.08
3697;BME280;60662;48.810;8.872;2022-10-10T16:17:11;96712.81;;;21.85;54.97
3697;BME280;60662;48.810;8.872;2022-10-10T16:18:12;96721.03;;;21.72;55.28
3697;BME280;60662;48.810;8.872;2022-10-10T16:19:18;96720.75;;;21.65;56.09
3697;BME280;60662;48.810;8.872;2022-10-10T16:20:19;96706.97;;;21.50;56.30
3697;BME280;60662;48.810;8.872;2022-10-10T16:21:23;96720.94;;;21.43;56.64
3697;BME280;60662;48.810;8.872;2022-10-10T16:22:24;96722.03;;;21.40;57.49
3697;BME280;60662;48.810;8.872;2022-10-10T16:23:26;96722.41;;;21.26;57.38
3697;BME280;60662;48.810;8.872;2022-10-10T16:24:30;96734.53;;;21.18;58.06
3697;BME280;60662;48.810;8.872;2022-10-10T16:25:32;96738.81;;;21.10;58.17
3697;BME280;60662;48.810;8.872;2022-10-10T16:26:33;96729.69;;;21.02;58.18
3697;BME280;60662;48.810;8.872;2022-10-10T16:27:37;96724.34;;;20.93;58.00
3697;BME280;60662;48.810;8.872;2022-10-10T16:28:38;96729.22;;;20.87;58.69
3697;BME280;60662;48.810;8.872;2022-10-10T16:29:40;96734.31;;;20.79;58.85
3697;BME280;60662;48.810;8.872;2022-10-10T16:30:42;96741.50;;;20.14;61.66
3697;BME280;60662;48.810;8.872;2022-10-10T16:38:05;96743.47;;;19.66;62.60
3697;BME280;60662;48.810;8.872;2022-10-10T16:39:07;96747.94;;;19.66;62.11
3697;BME280;60662;48.810;8.872;2022-10-10T16:40:08;96743.88;;;19.50;62.84
3697;BME280;60662;48.810;8.872;2022-10-10T16:41:12;96728.13;;;19.03;63.83
3697;BME280;60662;48.810;8.872;2022-10-10T16:42:34;96743.28;;;19.24;63.88
3697;BME280;60662;48.810;8.872;2022-10-10T16:43:37;96742.19;;;19.27;64.01
3697;BME280;60662;48.810;8.872;2022-10-10T16:44:38;96743.50;;;19.32;64.27
3697;BME280;60662;48.810;8.872;2022-10-10T16:45:44;96738.81;;;19.36;64.50
3697;BME280;60662;48.810;8.872;2022-10-10T16:46:46;96734.47;;;19.35;64.44